Time;durP1;ratioP1;P1;durP2;ratioP2;P2;SDS_P1;SDS_P2;PMS_P1;PMS_P2;Temp;Humidity;BMP_temperature;BMP_pressure;BME280_temperature;BME280_humidity;BME280_pressure;Samples;Min_cycle;Max_cycle;Signal;HPM_P1;HPM_P2
2022/07/03 00:02:06;;;;;;;26.53;7.43;;;16.30;88.20;;;;;;5053080;28;20207;-77
2022/07/03 00:04:33;;;;;;;21.87;5.13;;;16.30;88.10;;;;;;5052219;28;20203;-79
2022/07/03 00:07:01;;;;;;;27.10;6.50;;;16.30;88.30;;;;;;5066686;28;20180;-78
2022/07/03 00:09:28;;;;;;;24.97;5.93;;;16.40;88.30;;;;;;5054759;28;20184;-74
2022/07/03 00:11:56;;;;;;;28.87;6.07;;;16.30;88.00;;;;;;5066606;28;20175;-82
2022/07/03 00:14:24;;;;;;;23.13;4.30;;;16.30;87.60;;;;;;5070811;28;20186;-78
2022/07/03 00:16:52;;;;;;;26.63;4.23;;;16.30;87.70;;;;;;5088903;28;20520;-80
2022/07/03 00:19:19;;;;;;;23.43;5.63;;;16.30;87.50;;;;;;5068733;28;20206;-75
2022/07/03 00:22:02;;;;;;;22.47;5.73;;;16.30;87.30;;;;;;5059952;28;20230;-81
2022/07/03 00:24:51;;;;;;;19.90;4.80;;;16.30;87.10;;;;;;5081863;28;20180;-80
2022/07/03 00:27:21;;;;;;;28.57;6.13;;;16.40;87.20;;;;;;5063026;28;20317;-75
2022/07/03 00:29:50;;;;;;;32.10;5.27;;;16.30;87.70;;;;;;5054286;28;20220;-76
2022/07/03 00:32:24;;;;;;;29.10;6.80;;;16.30;88.10;;;;;;5077440;28;20175;-77
2022/07/03 00:34:54;;;;;;;31.80;5.67;;;16.30;87.70;;;;;;5057471;28;20184;-79
2022/07/03 00:37:23;;;;;;;31.53;7.40;;;16.40;87.60;;;;;;5054813;28;20193;-75
2022/07/03 00:39:51;;;;;;;21.87;6.87;;;16.50;87.00;;;;;;5051900;28;20252;-81
2022/07/03 00:42:19;;;;;;;25.37;5.07;;;16.50;86.10;;;;;;5061404;28;20225;-77
2022/07/03 00:44:49;;;;;;;30.13;6.50;;;16.60;85.00;;;;;;5071124;28;20186;-78
2022/07/03 00:47:19;;;;;;;23.17;4.30;;;16.60;85.20;;;;;;5077714;28;20185;-77
2022/07/03 00:49:49;;;;;;;28.60;6.00;;;16.70;84.50;;;;;;5063159;28;20169;-76
2022/07/03 00:52:19;;;;;;;30.10;5.63;;;16.70;84.50;;;;;;5062886;28;20211;-76
2022/07/03 00:54:52;;;;;;;29.00;5.17;;;16.80;84.70;;;;;;5060567;28;20268;-73
2022/07/03 00:57:22;;;;;;;30.20;9.23;;;16.90;84.30;;;;;;5062365;28;20630;-76
2022/07/03 00:59:50;;;;;;;24.97;5.10;;;16.90;84.00;;;;;;5054940;28;20669;-73
2022/07/03 01:02:34;;;;;;;26.97;5.87;;;16.80;84.10;;;;;;5057088;28;20262;-74
2022/07/03 01:05:08;;;;;;;28.40;5.60;;;16.80;84.30;;;;;;5061536;28;20177;-72
2022/07/03 01:07:48;;;;;;;27.90;6.07;;;17.00;85.30;;;;;;5057528;28;20178;-74
2022/07/03 01:10:35;;;;;;;32.83;5.67;;;17.00;84.70;;;;;;5051222;28;20275;-74
2022/07/03 01:13:14;;;;;;;32.83;5.97;;;17.20;83.50;;;;;;5049866;28;20285;-74
2022/07/03 01:16:17;;;;;;;23.83;4.70;;;17.20;82.40;;;;;;5051539;28;20182;-74
2022/07/03 01:18:46;;;;;;;23.63;5.00;;;17.30;81.80;;;;;;5047136;28;20202;-72
2022/07/03 01:21:35;;;;;;;26.13;5.73;;;17.20;82.10;;;;;;5051433;28;20206;-74
2022/07/03 01:24:18;;;;;;;29.90;6.93;;;17.20;81.80;;;;;;5071338;28;20217;-72
2022/07/03 01:26:48;;;;;;;24.93;4.97;;;17.20;82.40;;;;;;5058325;28;20720;-73
2022/07/03 01:29:23;;;;;;;28.83;4.97;;;17.20;82.80;;;;;;5051514;28;20666;-75
2022/07/03 01:31:54;;;;;;;27.23;5.73;;;17.20;83.00;;;;;;5052851;28;20185;-75
2022/07/03 01:34:24;;;;;;;24.90;5.37;;;17.20;83.30;;;;;;5054976;28;20529;-76
2022/07/03 01:36:58;;;;;;;29.63;6.90;;;17.20;83.40;;;;;;5055121;28;20229;-75
2022/07/03 01:39:27;;;;;;;28.60;6.13;;;17.10;83.60;;;;;;5064113;28;20170;-73
2022/07/03 01:42:00;;;;;;;26.00;5.70;;;17.00;84.20;;;;;;5062461;28;20342;-74
2022/07/03 01:44:29;;;;;;;29.83;5.70;;;17.00;84.10;;;;;;5070997;28;20695;-72
2022/07/03 01:46:58;;;;;;;25.37;4.13;;;16.90;83.80;;;;;;5064435;28;20179;-72
2022/07/03 01:49:28;;;;;;;23.43;4.20;;;16.80;83.00;;;;;;5068877;28;20179;-75
2022/07/03 01:51:56;;;;;;;20.87;4.50;;;16.80;82.90;;;;;;5064376;28;20201;-73
2022/07/03 01:54:26;;;;;;;21.37;4.07;;;16.80;83.40;;;;;;5059766;28;20802;-79
2022/07/03 01:56:54;;;;;;;23.17;5.60;;;16.80;83.50;;;;;;5076162;28;20213;-75
2022/07/03 01:59:22;;;;;;;28.63;7.40;;;16.80;83.10;;;;;;5080720;28;20549;-74
2022/07/03 02:02:09;;;;;;;28.47;5.70;;;16.80;82.80;;;;;;5064275;28;20219;-76
2022/07/03 02:05:03;;;;;;;25.23;5.20;;;16.90;82.60;;;;;;5067706;28;20636;-77
2022/07/03 02:07:36;;;;;;;25.67;5.57;;;17.00;82.20;;;;;;5060866;28;20196;-74
2022/07/03 02:10:09;;;;;;;27.63;5.07;;;17.00;81.90;;;;;;5066805;28;20181;-76
2022/07/03 02:13:02;;;;;;;25.53;6.50;;;17.10;81.50;;;;;;5053894;28;20524;-75
2022/07/03 02:15:34;;;;;;;23.73;5.40;;;17.10;81.00;;;;;;5054041;28;20183;-76
2022/07/03 02:18:19;;;;;;;29.13;5.20;;;17.10;81.60;;;;;;5073210;28;20586;-75
2022/07/03 02:20:52;;;;;;;33.67;8.63;;;17.10;80.80;;;;;;5053900;28;20635;-76
2022/07/03 02:23:24;;;;;;;24.30;5.97;;;17.10;80.50;;;;;;5071544;28;20188;-76
2022/07/03 02:25:56;;;;;;;28.53;8.10;;;17.10;81.10;;;;;;5054467;28;20184;-77
2022/07/03 02:28:40;;;;;;;33.93;6.43;;;17.10;81.80;;;;;;5053523;28;20207;-74
2022/07/03 02:31:10;;;;;;;25.67;5.70;;;16.90;82.10;;;;;;5053835;28;20176;-77
2022/07/03 02:33:41;;;;;;;25.03;4.83;;;16.70;83.20;;;;;;5053646;28;20168;-78
2022/07/03 02:36:11;;;;;;;21.17;4.03;;;16.60;83.50;;;;;;5053586;28;20230;-75
2022/07/03 02:38:44;;;;;;;21.67;5.20;;;16.50;83.10;;;;;;5064871;28;20179;-78
2022/07/03 02:41:21;;;;;;;21.83;4.37;;;16.50;84.10;;;;;;5070555;28;20196;-75
2022/07/03 02:43:49;;;;;;;22.47;4.23;;;16.50;84.70;;;;;;5052464;28;20173;-74
2022/07/03 02:49:32;;;;;;;25.50;5.70;;;16.30;86.40;;;;;;5053477;28;20218;-75
2022/07/03 02:52:15;;;;;;;30.93;5.00;;;16.00;88.80;;;;;;5056798;28;20192;-79
2022/07/03 02:54:47;;;;;;;36.63;7.37;;;15.90;89.60;;;;;;5063712;28;20258;-77
2022/07/03 02:57:18;;;;;;;35.23;6.47;;;15.90;90.10;;;;;;5063516;28;20187;-79
2022/07/03 02:59:56;;;;;;;32.07;6.90;;;15.80;90.40;;;;;;5054715;28;20261;-75
2022/07/03 03:02:23;;;;;;;32.03;5.63;;;15.70;90.80;;;;;;5058344;28;20211;-76
2022/07/03 03:04:56;;;;;;;33.73;5.60;;;15.60;91.20;;;;;;5065313;28;20202;-76
2022/07/03 03:07:33;;;;;;;37.77;6.23;;;15.60;91.30;;;;;;5061680;28;20207;-75
2022/07/03 03:10:00;;;;;;;30.20;5.50;;;15.50;91.40;;;;;;5056787;28;20222;-76
2022/07/03 03:12:37;;;;;;;42.73;6.97;;;15.50;91.80;;;;;;5053074;28;20266;-81
2022/07/03 03:15:06;;;;;;;35.03;6.30;;;15.40;91.90;;;;;;5058537;28;20270;-80
2022/07/03 03:17:52;;;;;;;52.13;7.73;;;15.40;92.30;;;;;;5053027;28;20211;-80
2022/07/03 03:20:26;;;;;;;33.53;6.27;;;15.30;92.30;;;;;;5052861;28;20208;-80
2022/07/03 03:23:23;;;;;;;27.10;5.50;;;15.30;92.10;;;;;;5059457;28;20226;-75
2022/07/03 03:25:55;;;;;;;38.70;5.90;;;15.20;92.00;;;;;;5060919;28;20532;-74
2022/07/03 03:28:22;;;;;;;48.33;7.27;;;15.20;92.10;;;;;;5057677;28;20234;-75
2022/07/03 03:30:50;;;;;;;49.33;7.40;;;15.20;92.40;;;;;;5053129;28;20178;-76
2022/07/03 03:33:19;;;;;;;45.47;7.20;;;15.30;92.80;;;;;;5057535;28;20186;-75
2022/07/03 03:35:46;;;;;;;38.67;7.53;;;15.30;93.10;;;;;;5053037;28;20179;-75
2022/07/03 03:38:14;;;;;;;45.37;7.40;;;15.30;93.20;;;;;;5066292;28;20187;-82
2022/07/03 03:40:41;;;;;;;46.07;8.33;;;15.30;93.20;;;;;;5053202;28;20175;-73
2022/07/03 03:43:09;;;;;;;52.80;9.77;;;15.30;93.40;;;;;;5052842;28;20191;-74
2022/07/03 03:45:36;;;;;;;57.17;9.77;;;15.30;93.40;;;;;;5056259;28;20191;-74
2022/07/03 03:48:04;;;;;;;43.23;8.43;;;15.40;93.40;;;;;;5065792;28;20240;-75
2022/07/03 03:50:31;;;;;;;50.43;11.17;;;15.30;93.10;;;;;;5069866;28;20237;-77
2022/07/03 03:53:00;;;;;;;41.67;8.33;;;15.30;92.90;;;;;;5052669;28;20184;-78
2022/07/03 03:55:28;;;;;;;28.57;6.17;;;15.30;92.90;;;;;;5053723;28;20194;-74
2022/07/03 03:57:55;;;;;;;34.70;7.30;;;15.10;93.40;;;;;;5084818;28;20764;-77
2022/07/03 04:00:23;;;;;;;34.50;6.53;;;15.00;93.50;;;;;;5063097;28;20635;-75
2022/07/03 04:02:50;;;;;;;36.43;6.40;;;15.00;93.50;;;;;;5065830;28;20236;-74
2022/07/03 04:05:17;;;;;;;29.87;6.23;;;15.00;93.60;;;;;;5071739;28;20184;-76
2022/07/03 04:07:45;;;;;;;41.43;6.50;;;15.00;93.60;;;;;;5070598;28;20194;-72
2022/07/03 04:10:12;;;;;;;30.50;6.47;;;15.00;93.60;;;;;;5072187;28;20253;-73
2022/07/03 04:12:40;;;;;;;47.00;7.43;;;15.10;93.50;;;;;;5071732;28;20171;-73
2022/07/03 04:15:07;;;;;;;46.20;7.97;;;15.10;93.40;;;;;;5067307;28;20171;-74
2022/07/03 04:17:35;;;;;;;40.17;7.43;;;15.10;93.40;;;;;;5056255;28;20213;-73
2022/07/03 04:20:02;;;;;;;39.43;6.43;;;15.10;93.30;;;;;;5057404;28;20643;-70
2022/07/03 04:22:30;;;;;;;41.10;6.37;;;15.10;93.20;;;;;;5072035;28;20547;-76
2022/07/03 04:24:57;;;;;;;36.50;8.23;;;15.10;92.90;;;;;;5055873;28;20181;-71
2022/07/03 04:27:25;;;;;;;36.10;7.47;;;15.20;92.60;;;;;;5051290;28;20227;-74
2022/07/03 04:29:52;;;;;;;33.20;6.87;;;15.20;92.10;;;;;;5055773;28;20584;-71
2022/07/03 04:32:19;;;;;;;38.53;8.27;;;15.20;91.90;;;;;;5051948;28;20198;-73
2022/07/03 04:34:47;;;;;;;33.10;5.57;;;15.20;91.90;;;;;;5052348;28;20684;-72
2022/07/03 04:37:14;;;;;;;39.30;6.33;;;15.20;91.70;;;;;;5052093;28;20269;-75
2022/07/03 04:39:42;;;;;;;28.20;5.50;;;15.20;91.50;;;;;;5061019;28;20187;-73
2022/07/03 04:42:09;;;;;;;31.30;6.20;;;15.20;91.20;;;;;;5065329;28;20210;-70
2022/07/03 04:44:36;;;;;;;36.83;6.13;;;15.10;91.10;;;;;;5050455;28;20179;-69
2022/07/03 04:47:04;;;;;;;31.53;5.57;;;15.10;91.10;;;;;;5066926;28;20272;-73
2022/07/03 04:49:31;;;;;;;38.33;6.40;;;15.10;90.70;;;;;;5065350;28;20183;-73
2022/07/03 04:51:59;;;;;;;39.87;6.73;;;15.10;90.80;;;;;;5067462;28;20241;-73
2022/07/03 04:54:26;;;;;;;32.13;7.73;;;15.00;90.80;;;;;;5070691;28;20172;-74
2022/07/03 04:56:54;;;;;;;24.60;6.20;;;15.00;90.70;;;;;;5052208;28;20188;-77
2022/07/03 04:59:21;;;;;;;23.20;5.00;;;15.00;90.10;;;;;;5060477;28;20542;-73
2022/07/03 05:01:49;;;;;;;32.77;5.50;;;15.00;89.60;;;;;;5060683;28;20670;-78
2022/07/03 05:04:17;;;;;;;36.10;5.97;;;15.00;89.30;;;;;;5062892;28;20172;-77
2022/07/03 05:06:45;;;;;;;32.30;5.50;;;15.00;89.20;;;;;;5056543;28;20187;-79
2022/07/03 05:09:14;;;;;;;33.93;5.73;;;14.90;89.30;;;;;;5056275;28;20183;-74
2022/07/03 05:11:42;;;;;;;31.77;5.80;;;14.90;89.40;;;;;;5059494;28;20177;-75
2022/07/03 05:14:09;;;;;;;25.77;5.57;;;15.00;89.60;;;;;;5063695;28;20656;-77
2022/07/03 05:16:36;;;;;;;43.80;5.30;;;14.90;89.70;;;;;;5055543;28;20197;-79
2022/07/03 05:19:04;;;;;;;24.80;5.57;;;15.00;89.90;;;;;;5054840;28;20180;-75
2022/07/03 05:21:32;;;;;;;31.43;6.73;;;15.00;89.90;;;;;;5057846;28;20306;-73
2022/07/03 05:24:00;;;;;;;26.27;6.23;;;15.00;90.30;;;;;;5062034;28;20214;-74
2022/07/03 05:26:27;;;;;;;34.97;6.53;;;15.00;90.60;;;;;;5054542;28;20310;-74
2022/07/03 05:28:54;;;;;;;45.90;7.63;;;15.00;91.00;;;;;;5059627;28;20208;-75
2022/07/03 05:31:22;;;;;;;33.30;5.67;;;15.00;91.00;;;;;;5055289;28;20644;-76
2022/07/03 05:33:49;;;;;;;38.30;6.47;;;15.00;91.10;;;;;;5063525;28;20176;-83
2022/07/03 05:36:20;;;;;;;25.67;5.80;;;15.00;91.40;;;;;;5059422;28;20249;-76
2022/07/03 05:41:32;;;;;;;31.27;5.47;;;14.90;91.40;;;;;;5054651;28;20217;-81
2022/07/03 05:44:00;;;;;;;26.57;5.97;;;15.00;91.20;;;;;;5055118;28;20629;-79
2022/07/03 05:46:27;;;;;;;29.00;5.67;;;15.00;91.20;;;;;;5054904;28;20188;-79
2022/07/03 05:48:54;;;;;;;33.10;6.40;;;15.00;91.50;;;;;;5055745;28;20200;-77
2022/07/03 05:51:22;;;;;;;33.63;5.87;;;15.00;91.70;;;;;;5068372;28;20206;-77
2022/07/03 05:53:49;;;;;;;31.63;5.70;;;14.90;91.90;;;;;;5065263;28;20311;-78
2022/07/03 05:56:17;;;;;;;28.07;6.37;;;14.90;91.90;;;;;;5071593;28;20201;-79
2022/07/03 05:58:44;;;;;;;32.23;5.83;;;15.00;92.10;;;;;;5059463;28;20580;-78
2022/07/03 06:01:11;;;;;;;24.57;6.47;;;14.90;92.40;;;;;;5068649;28;20223;-75
2022/07/03 06:03:39;;;;;;;28.17;6.20;;;14.90;92.60;;;;;;5067900;28;20190;-75
2022/07/03 06:06:06;;;;;;;34.07;6.17;;;14.90;92.90;;;;;;5071570;28;20187;-78
2022/07/03 06:08:34;;;;;;;32.17;7.47;;;14.90;93.10;;;;;;5055059;28;20180;-77
2022/07/03 06:11:01;;;;;;;36.73;7.37;;;14.90;93.30;;;;;;5054587;28;20811;-76
2022/07/03 06:13:28;;;;;;;33.13;6.93;;;14.90;93.40;;;;;;5057535;28;20240;-81
2022/07/03 06:15:56;;;;;;;30.20;6.67;;;15.00;93.30;;;;;;5054785;28;20176;-77
2022/07/03 06:18:23;;;;;;;19.57;4.73;;;14.90;92.70;;;;;;5063118;28;20183;-74
2022/07/03 06:20:51;;;;;;;22.90;5.60;;;14.80;91.00;;;;;;5059114;28;20183;-81
2022/07/03 06:23:18;;;;;;;33.00;5.90;;;14.80;90.60;;;;;;5070544;28;20203;-77
2022/07/03 06:25:45;;;;;;;36.00;5.93;;;14.80;90.60;;;;;;5066432;28;20183;-79
2022/07/03 06:28:14;;;;;;;27.50;5.77;;;14.80;90.70;;;;;;5058649;28;20254;-73
2022/07/03 06:30:41;;;;;;;27.73;5.70;;;14.70;90.90;;;;;;5061248;28;20275;-72
2022/07/03 06:33:08;;;;;;;39.07;6.07;;;14.70;90.70;;;;;;5053757;28;20645;-74
2022/07/03 06:35:36;;;;;;;25.10;5.43;;;14.80;90.10;;;;;;5054146;28;20199;-77
2022/07/03 06:38:04;;;;;;;28.07;5.50;;;14.80;90.20;;;;;;5054081;28;20188;-71
2022/07/03 06:40:32;;;;;;;22.73;4.70;;;14.80;89.90;;;;;;5053453;28;20329;-73
2022/07/03 06:42:59;;;;;;;32.10;4.73;;;14.80;90.10;;;;;;5053741;28;20215;-72
2022/07/03 06:45:26;;;;;;;28.83;5.53;;;14.80;90.00;;;;;;5054140;28;20642;-73
2022/07/03 06:47:54;;;;;;;32.67;6.50;;;14.80;89.70;;;;;;5053947;28;20302;-73
2022/07/03 06:50:21;;;;;;;30.63;6.57;;;14.80;90.00;;;;;;5053920;28;20184;-75
2022/07/03 06:52:49;;;;;;;38.37;6.90;;;14.80;90.50;;;;;;5054817;28;20175;-75
2022/07/03 06:55:16;;;;;;;44.13;7.23;;;14.90;91.60;;;;;;5053944;28;20188;-76
2022/07/03 06:57:43;;;;;;;33.33;6.00;;;14.90;91.90;;;;;;5053661;28;20184;-76
2022/07/03 07:00:12;;;;;;;33.70;6.33;;;14.90;91.80;;;;;;5063891;28;20179;-73
2022/07/03 07:02:39;;;;;;;29.63;6.87;;;14.90;91.70;;;;;;5057205;28;20211;-73
2022/07/03 07:05:10;;;;;;;34.43;6.80;;;14.80;91.90;;;;;;5059956;28;20233;-73
2022/07/03 07:07:37;;;;;;;35.33;6.20;;;14.80;91.90;;;;;;5053707;28;20198;-72
2022/07/03 07:10:05;;;;;;;29.70;6.20;;;14.70;91.80;;;;;;5052060;28;20172;-77
2022/07/03 07:12:33;;;;;;;30.60;6.63;;;14.80;91.40;;;;;;5052835;28;20615;-75
2022/07/03 07:15:00;;;;;;;28.97;5.93;;;14.80;91.70;;;;;;5052662;28;20569;-76
2022/07/03 07:17:28;;;;;;;35.80;6.83;;;14.80;91.70;;;;;;5053687;28;20167;-73
2022/07/03 07:19:58;;;;;;;35.70;6.40;;;14.80;91.80;;;;;;5051896;28;20203;-73
2022/07/03 07:22:25;;;;;;;30.47;6.03;;;14.70;91.60;;;;;;5053654;28;20297;-74
2022/07/03 07:24:53;;;;;;;20.73;4.87;;;14.70;91.20;;;;;;5053191;28;20245;-72
2022/07/03 07:27:21;;;;;;;21.47;5.23;;;14.50;90.90;;;;;;5052526;28;20230;-77
2022/07/03 07:29:48;;;;;;;27.10;5.80;;;14.50;90.80;;;;;;5052682;28;20183;-77
2022/07/03 07:32:16;;;;;;;20.60;4.90;;;14.50;91.10;;;;;;5053006;28;20525;-76
2022/07/03 07:34:43;;;;;;;25.40;5.40;;;14.50;91.40;;;;;;5052398;28;20187;-73
2022/07/03 07:37:11;;;;;;;25.23;5.13;;;14.60;91.50;;;;;;5052803;28;20190;-76
2022/07/03 07:39:38;;;;;;;23.53;5.50;;;14.60;91.70;;;;;;5061259;28;20183;-75
2022/07/03 07:42:06;;;;;;;21.63;6.00;;;14.60;91.60;;;;;;5054171;28;20212;-76
2022/07/03 07:44:33;;;;;;;38.67;5.90;;;14.60;91.60;;;;;;5052518;28;20175;-75
2022/07/03 07:47:01;;;;;;;28.00;5.73;;;14.60;91.90;;;;;;5052808;28;20168;-85
2022/07/03 07:49:28;;;;;;;25.47;5.73;;;14.70;91.80;;;;;;5056372;28;20206;-77
2022/07/03 07:51:55;;;;;;;33.33;5.90;;;14.70;91.80;;;;;;5069456;28;20268;-77
2022/07/03 07:54:23;;;;;;;32.40;6.07;;;14.70;92.00;;;;;;5057033;28;20189;-78
2022/07/03 07:56:50;;;;;;;38.83;7.20;;;14.70;91.90;;;;;;5056027;28;20191;-74
2022/07/03 07:59:18;;;;;;;30.30;6.10;;;14.80;91.80;;;;;;5055438;28;20182;-76
2022/07/03 08:07:16;;;;;;;23.27;5.87;;;14.80;91.90;;;;;;5052986;28;20194;-75
2022/07/03 08:09:43;;;;;;;34.97;6.67;;;14.80;92.70;;;;;;5051255;28;20409;-75
2022/07/03 08:12:11;;;;;;;33.53;6.70;;;14.60;93.20;;;;;;5053378;28;20171;-74
2022/07/03 08:14:38;;;;;;;37.87;6.80;;;14.60;93.30;;;;;;5055355;28;20191;-74
2022/07/03 08:17:06;;;;;;;23.93;6.17;;;14.50;93.00;;;;;;5052968;28;20179;-77
2022/07/03 08:19:35;;;;;;;36.00;5.93;;;14.40;92.50;;;;;;5053804;28;20176;-78
2022/07/03 08:22:03;;;;;;;29.93;6.03;;;14.30;91.90;;;;;;5057845;28;20218;-74
2022/07/03 08:24:30;;;;;;;23.63;5.57;;;14.30;91.90;;;;;;5053466;28;20192;-81
2022/07/03 08:26:58;;;;;;;26.53;5.43;;;14.30;92.10;;;;;;5052045;28;20262;-75
2022/07/03 08:29:27;;;;;;;35.60;5.80;;;14.30;92.30;;;;;;5052523;28;20266;-76
2022/07/03 08:31:55;;;;;;;31.93;5.67;;;14.30;92.40;;;;;;5066223;28;20197;-75
2022/07/03 08:34:22;;;;;;;22.17;5.83;;;14.30;92.60;;;;;;5056120;28;20184;-79
2022/07/03 08:36:50;;;;;;;29.80;6.90;;;14.40;92.80;;;;;;5052359;28;20172;-76
2022/07/03 08:39:17;;;;;;;31.67;6.50;;;14.50;92.80;;;;;;5052654;28;20246;-78
2022/07/03 08:41:45;;;;;;;25.00;4.77;;;14.50;92.70;;;;;;5055514;28;20207;-79
2022/07/03 08:44:14;;;;;;;20.77;4.97;;;14.30;91.40;;;;;;5056298;28;20194;-75
2022/07/03 08:46:47;;;;;;;13.60;3.97;;;14.30;91.20;;;;;;5056923;28;20180;-77
2022/07/03 08:49:16;;;;;;;30.67;4.90;;;14.20;91.30;;;;;;5056885;28;20626;-71
2022/07/03 08:51:46;;;;;;;19.90;4.93;;;14.20;91.60;;;;;;5061555;28;20590;-73
2022/07/03 08:54:14;;;;;;;21.37;4.67;;;14.20;91.50;;;;;;5064961;28;20182;-72
2022/07/03 08:56:43;;;;;;;23.93;5.00;;;14.20;91.40;;;;;;5056047;28;20182;-73
2022/07/03 08:59:10;;;;;;;18.70;5.47;;;14.20;91.40;;;;;;5059835;28;20232;-73
2022/07/03 09:01:41;;;;;;;24.70;5.50;;;14.20;91.50;;;;;;5072424;28;20665;-72
2022/07/03 09:04:12;;;;;;;26.30;6.00;;;14.20;91.90;;;;;;5061187;28;20301;-73
2022/07/03 09:06:43;;;;;;;29.27;6.90;;;14.30;92.10;;;;;;5055922;28;20611;-79
2022/07/03 09:09:10;;;;;;;28.83;7.60;;;14.40;92.40;;;;;;5057664;28;20176;-77
2022/07/03 09:11:41;;;;;;;36.67;7.00;;;14.40;92.40;;;;;;5054859;28;20637;-74
2022/07/03 09:14:08;;;;;;;29.43;7.63;;;14.50;92.30;;;;;;5055428;28;20254;-74
2022/07/03 09:16:36;;;;;;;29.43;6.60;;;14.50;92.50;;;;;;5055735;28;20183;-73
2022/07/03 09:19:04;;;;;;;35.07;6.83;;;14.60;92.60;;;;;;5055615;28;20179;-73
2022/07/03 09:21:42;;;;;;;36.73;6.93;;;14.60;92.70;;;;;;5062859;28;20227;-73
2022/07/03 09:24:10;;;;;;;33.60;7.23;;;14.60;92.80;;;;;;5066221;28;20541;-72
2022/07/03 09:26:51;;;;;;;27.70;6.23;;;14.60;92.80;;;;;;5054470;28;20226;-72
2022/07/03 09:29:19;;;;;;;32.63;7.73;;;14.60;92.80;;;;;;5064689;28;20175;-72
2022/07/03 09:31:55;;;;;;;29.40;6.67;;;14.60;92.80;;;;;;5060424;28;20317;-72
2022/07/03 09:34:24;;;;;;;35.90;7.00;;;14.70;92.90;;;;;;5054840;28;20186;-74
2022/07/03 09:36:52;;;;;;;34.13;7.47;;;14.70;93.00;;;;;;5058612;28;20173;-74
2022/07/03 09:39:27;;;;;;;28.77;6.87;;;14.70;93.20;;;;;;5065713;28;20168;-72
2022/07/03 09:41:57;;;;;;;24.63;7.63;;;14.80;93.30;;;;;;5054838;28;20821;-73
2022/07/03 09:44:45;;;;;;;30.57;6.90;;;14.80;93.20;;;;;;5054493;28;20179;-73
2022/07/03 09:47:13;;;;;;;32.10;7.87;;;14.70;93.20;;;;;;5055031;28;20176;-75
2022/07/03 09:49:59;;;;;;;25.47;6.40;;;14.80;93.00;;;;;;5053512;28;20186;-77
2022/07/03 09:52:46;;;;;;;30.53;6.77;;;14.70;92.70;;;;;;5058680;28;20647;-74
2022/07/03 09:55:20;;;;;;;25.00;6.50;;;14.70;92.60;;;;;;5054758;28;20178;-72
2022/07/03 09:58:01;;;;;;;29.87;11.87;;;14.70;92.70;;;;;;5062045;28;20643;-73
2022/07/03 10:00:31;;;;;;;35.90;12.43;;;14.70;92.70;;;;;;5071138;28;20202;-73
2022/07/03 10:03:06;;;;;;;24.73;7.73;;;14.70;92.90;;;;;;5055491;28;20196;-75
2022/07/03 10:05:37;;;;;;;23.27;6.23;;;14.70;93.20;;;;;;5060319;28;20246;-73
2022/07/03 10:08:11;;;;;;;33.90;7.20;;;14.60;93.40;;;;;;5057952;28;20191;-75
2022/07/03 10:10:42;;;;;;;33.90;6.47;;;14.60;93.50;;;;;;5062055;28;20197;-72
2022/07/03 10:13:10;;;;;;;28.43;5.90;;;14.50;93.30;;;;;;5054241;28;20530;-72
2022/07/03 10:15:40;;;;;;;29.23;6.43;;;14.50;93.00;;;;;;5054487;28;20176;-73
2022/07/03 10:18:12;;;;;;;31.03;6.40;;;14.50;92.70;;;;;;5054093;28;20228;-73
2022/07/03 10:20:48;;;;;;;30.13;6.87;;;14.70;92.80;;;;;;5054376;28;20539;-72
2022/07/03 10:23:22;;;;;;;36.40;7.47;;;14.60;92.50;;;;;;5054752;28;20214;-72
2022/07/03 10:25:50;;;;;;;35.13;7.30;;;14.70;91.40;;;;;;5062221;28;20183;-76
2022/07/03 10:28:19;;;;;;;36.67;7.63;;;14.70;91.00;;;;;;5065165;28;20192;-73
2022/07/03 10:30:48;;;;;;;46.80;8.23;;;14.80;90.50;;;;;;5064032;28;20198;-76
2022/07/03 10:33:16;;;;;;;34.33;6.80;;;14.80;91.10;;;;;;5054040;28;20967;-80
2022/07/03 10:35:51;;;;;;;41.57;8.03;;;14.70;91.50;;;;;;5060119;28;20643;-75
2022/07/03 10:38:42;;;;;;;33.00;7.13;;;14.80;91.50;;;;;;5057566;28;20169;-78
2022/07/03 10:46:59;;;;;;;29.03;7.53;;;14.70;91.20;;;;;;5054105;28;20187;-77
2022/07/03 10:49:26;;;;;;;24.57;5.80;;;14.70;91.00;;;;;;5062472;28;20230;-76
2022/07/03 10:52:03;;;;;;;26.57;6.77;;;14.70;90.70;;;;;;5057810;28;20324;-73
2022/07/03 10:54:39;;;;;;;31.03;6.57;;;14.70;90.60;;;;;;5053863;28;20258;-77
2022/07/03 10:57:08;;;;;;;43.97;7.43;;;14.60;91.00;;;;;;5053633;28;20189;-75
2022/07/03 10:59:43;;;;;;;24.03;5.60;;;14.70;90.90;;;;;;5058644;28;20185;-77
2022/07/03 11:02:43;;;;;;;36.90;7.70;;;14.60;91.30;;;;;;5061050;28;20729;-75
2022/07/03 11:05:12;;;;;;;31.97;8.23;;;14.50;91.90;;;;;;5054706;28;20238;-74
2022/07/03 11:07:54;;;;;;;36.07;7.50;;;14.60;92.10;;;;;;5053535;28;20689;-73
2022/07/03 11:10:24;;;;;;;37.83;7.73;;;14.60;92.10;;;;;;5053209;28;20172;-77
2022/07/03 11:12:58;;;;;;;25.40;6.43;;;14.60;92.20;;;;;;5052338;28;20172;-77
2022/07/03 11:15:37;;;;;;;31.37;6.57;;;14.60;92.10;;;;;;5053189;28;20171;-76
2022/07/03 11:18:20;;;;;;;26.00;7.40;;;14.60;91.50;;;;;;5055063;28;20203;-78
2022/07/03 11:20:47;;;;;;;36.70;7.73;;;14.60;91.90;;;;;;5053295;28;20657;-76
2022/07/03 11:23:18;;;;;;;37.70;8.07;;;14.60;92.20;;;;;;5065590;28;20221;-78
2022/07/03 11:25:51;;;;;;;44.50;8.70;;;14.70;92.40;;;;;;5052862;28;20590;-76
2022/07/03 11:28:33;;;;;;;26.67;7.77;;;14.70;92.60;;;;;;5053118;28;20194;-78
2022/07/03 11:31:19;;;;;;;36.80;7.77;;;14.70;92.30;;;;;;5053092;28;20185;-77
2022/07/03 11:33:56;;;;;;;29.87;6.67;;;14.70;91.80;;;;;;5053174;28;20168;-76
2022/07/03 11:36:28;;;;;;;30.50;7.50;;;14.70;91.80;;;;;;5052859;28;20176;-76
2022/07/03 11:39:02;;;;;;;38.00;7.27;;;14.80;92.10;;;;;;5053081;28;20211;-77
2022/07/03 11:41:47;;;;;;;29.77;6.77;;;14.80;91.80;;;;;;5052804;28;20207;-78
2022/07/03 11:44:20;;;;;;;39.37;7.33;;;14.80;91.00;;;;;;5052418;28;20176;-80
2022/07/03 11:46:52;;;;;;;33.50;8.03;;;14.80;90.80;;;;;;5055266;28;20194;-81
2022/07/03 11:49:22;;;;;;;40.77;7.83;;;15.00;91.00;;;;;;5057309;28;20300;-77
2022/07/03 11:52:01;;;;;;;45.43;8.37;;;15.00;91.00;;;;;;5065847;28;20549;-75
2022/07/03 11:54:33;;;;;;;43.33;7.43;;;15.00;90.60;;;;;;5067946;28;20181;-73
2022/07/03 11:57:03;;;;;;;38.17;7.83;;;15.10;90.40;;;;;;5066285;28;20183;-77
2022/07/03 11:59:32;;;;;;;40.90;7.43;;;15.20;90.40;;;;;;5056958;28;20197;-75
2022/07/03 12:02:03;;;;;;;28.80;6.60;;;15.20;89.80;;;;;;5068017;28;20206;-78
2022/07/03 12:04:31;;;;;;;29.40;6.83;;;15.30;89.80;;;;;;5054158;28;20199;-76
2022/07/03 12:07:00;;;;;;;36.17;6.97;;;15.30;89.90;;;;;;5052274;28;20267;-77
2022/07/03 12:09:35;;;;;;;34.10;7.40;;;15.30;90.20;;;;;;5057760;28;20190;-77
2022/07/03 12:12:04;;;;;;;40.10;7.73;;;15.20;90.40;;;;;;5056676;28;20203;-75
2022/07/03 12:14:45;;;;;;;32.60;6.03;;;15.20;90.40;;;;;;5047576;28;20176;-75
2022/07/03 12:17:15;;;;;;;29.60;6.20;;;15.30;90.00;;;;;;5051251;28;20259;-76
2022/07/03 12:19:53;;;;;;;34.43;6.90;;;15.30;89.90;;;;;;5050988;28;20657;-79
2022/07/03 12:22:38;;;;;;;28.70;6.30;;;15.30;90.00;;;;;;5060957;28;20203;-77
2022/07/03 12:25:11;;;;;;;30.83;6.50;;;15.30;89.90;;;;;;5066772;28;20186;-75
2022/07/03 12:27:43;;;;;;;29.97;5.33;;;15.30;89.80;;;;;;5051388;28;20259;-76
2022/07/03 12:30:17;;;;;;;30.70;6.27;;;15.30;90.10;;;;;;5052048;28;20184;-79
2022/07/03 12:32:46;;;;;;;35.53;7.10;;;15.30;90.50;;;;;;5052337;28;20182;-76
2022/07/03 12:35:14;;;;;;;38.37;8.00;;;15.30;90.80;;;;;;5052146;28;20653;-76
2022/07/03 12:37:45;;;;;;;35.23;7.37;;;15.30;91.50;;;;;;5053302;28;20216;-74
2022/07/03 12:40:14;;;;;;;37.67;7.37;;;15.20;91.90;;;;;;5051944;28;20725;-75
2022/07/03 12:42:54;;;;;;;33.00;6.70;;;15.20;92.10;;;;;;5051648;28;20250;-77
2022/07/03 12:45:24;;;;;;;38.10;7.90;;;15.20;92.40;;;;;;5051946;28;20163;-74
2022/07/03 12:48:05;;;;;;;34.77;8.13;;;15.10;92.50;;;;;;5050893;28;20229;-74
2022/07/03 12:50:51;;;;;;;37.13;7.90;;;15.00;92.60;;;;;;5060325;28;20263;-79
2022/07/03 12:53:28;;;;;;;32.97;7.10;;;15.00;92.70;;;;;;5055849;28;20175;-76
2022/07/03 12:56:00;;;;;;;29.83;5.63;;;15.00;92.30;;;;;;5060321;28;20180;-70
2022/07/03 13:01:36;;;;;;;35.07;6.80;;;15.10;91.50;;;;;;5066286;28;20210;-72
2022/07/03 13:04:09;;;;;;;27.70;5.93;;;15.20;91.30;;;;;;5068441;28;20183;-75
2022/07/03 13:06:37;;;;;;;28.37;6.17;;;15.20;91.10;;;;;;5066215;28;20183;-76
2022/07/03 13:09:06;;;;;;;26.83;5.43;;;15.30;90.60;;;;;;5059993;28;20195;-74
2022/07/03 13:11:35;;;;;;;33.33;5.67;;;15.30;90.50;;;;;;5050558;28;20232;-72
2022/07/03 13:14:14;;;;;;;21.97;5.70;;;15.30;90.90;;;;;;5051290;28;20172;-73
2022/07/03 13:16:44;;;;;;;28.90;6.40;;;15.40;91.30;;;;;;5055138;28;20674;-76